createdAt,value
2022-11-15T00:00:41.232Z,101284.41
2022-11-15T00:02:43.162Z,101292.19
2022-11-15T00:04:44.847Z,101284.53
2022-11-15T00:06:46.623Z,101279.28
2022-11-15T00:08:48.565Z,101274.44
2022-11-15T00:10:57.717Z,101268.00
2022-11-15T00:12:59.433Z,101263.47
2022-11-15T00:15:01.435Z,101266.44
2022-11-15T00:17:03.261Z,101269.47
2022-11-15T00:19:04.964Z,101265.47
2022-11-15T00:21:10.494Z,101258.50
2022-11-15T00:23:12.179Z,101259.09
2022-11-15T00:25:13.884Z,101261.31
2022-11-15T00:27:15.792Z,101255.13
2022-11-15T00:29:17.469Z,101252.34
2022-11-15T00:31:19.191Z,101258.34
2022-11-15T00:33:21.018Z,101248.78
2022-11-15T00:35:23.144Z,101241.53
2022-11-15T00:37:24.940Z,101247.09
2022-11-15T00:39:26.734Z,101241.63
2022-11-15T00:41:28.421Z,101236.81
2022-11-15T00:43:30.605Z,101224.69
2022-11-15T00:45:32.473Z,101244.41
2022-11-15T00:47:34.172Z,101240.31
2022-11-15T00:49:35.923Z,101237.69
2022-11-15T00:51:37.721Z,101233.88
2022-11-15T00:53:39.452Z,101237.03
2022-11-15T00:55:41.204Z,101242.53
2022-11-15T00:57:43.002Z,101214.09
2022-11-15T00:59:44.684Z,101226.09
2022-11-15T01:01:46.393Z,101228.44
2022-11-15T01:03:48.067Z,101228.84
2022-11-15T01:05:49.743Z,101223.25
2022-11-15T01:07:55.728Z,101220.09
2022-11-15T01:09:57.668Z,101220.44
2022-11-15T01:11:59.331Z,101223.25
2022-11-15T01:14:01.040Z,101220.97
2022-11-15T01:16:15.875Z,101217.47
2022-11-15T01:18:17.619Z,101211.03
2022-11-15T01:20:19.576Z,101213.69
2022-11-15T01:22:21.684Z,101221.09
2022-11-15T01:24:23.361Z,101208.88
2022-11-15T01:26:25.738Z,101208.00
2022-11-15T01:28:33.241Z,101206.09
2022-11-15T01:30:34.962Z,101207.56
2022-11-15T01:32:36.679Z,101210.53
2022-11-15T01:34:38.788Z,101205.69
2022-11-15T01:36:40.508Z,101196.31
2022-11-15T01:38:42.578Z,101193.88
2022-11-15T01:40:44.538Z,101187.84
2022-11-15T01:42:46.255Z,101185.97
2022-11-15T01:44:50.128Z,101188.28
2022-11-15T01:46:52.129Z,101186.06
2022-11-15T01:48:56.425Z,101182.50
2022-11-15T01:51:00.750Z,101181.56
2022-11-15T01:53:02.854Z,101177.13
2022-11-15T01:55:19.228Z,101162.28
2022-11-15T01:57:21.148Z,101162.81
2022-11-15T01:59:24.048Z,101164.38
2022-11-15T02:01:27.735Z,101163.47
2022-11-15T02:03:39.174Z,101158.94
2022-11-15T02:05:42.202Z,101158.72
2022-11-15T02:07:44.051Z,101161.03
2022-11-15T02:09:46.899Z,101160.09
2022-11-15T02:11:50.965Z,101159.97
2022-11-15T02:13:53.254Z,101156.94
2022-11-15T02:16:16.057Z,101163.03
2022-11-15T02:18:29.397Z,101157.69
2022-11-15T02:20:58.918Z,101146.28
2022-11-15T02:23:18.915Z,101144.81
2022-11-15T02:25:41.716Z,101142.31
2022-11-15T02:27:54.695Z,101141.88
2022-11-15T02:30:15.479Z,101129.97
2022-11-15T02:32:30.426Z,101136.22
2022-11-15T02:35:01.378Z,101128.31
2022-11-15T02:37:46.394Z,101118.41
2022-11-15T02:40:27.973Z,101118.94
2022-11-15T02:42:37.468Z,101116.81
2022-11-15T02:44:44.782Z,101110.09
2022-11-15T02:46:55.119Z,101109.16
2022-11-15T02:48:56.978Z,101107.28
2022-11-15T02:51:00.172Z,101101.16
2022-11-15T02:53:02.239Z,101098.88
2022-11-15T02:55:04.179Z,101092.63
2022-11-15T02:57:13.609Z,101098.63
2022-11-15T02:59:24.615Z,101093.91
2022-11-15T03:01:51.068Z,101088.53
2022-11-15T03:04:17.198Z,101086.66
2022-11-15T03:06:29.163Z,101091.38
2022-11-15T03:08:38.453Z,101092.63
2022-11-15T03:10:59.096Z,101091.38
2022-11-15T03:13:25.188Z,101100.13
2022-11-15T03:15:41.300Z,101091.91
2022-11-15T03:18:10.337Z,101097.25
2022-11-15T03:20:15.483Z,101095.06
2022-11-15T03:22:21.053Z,101082.53
2022-11-15T03:24:26.260Z,101086.75
2022-11-15T03:26:30.492Z,101089.28
2022-11-15T03:28:39.514Z,101083.38
2022-11-15T03:30:42.743Z,101074.53
2022-11-15T03:32:57.875Z,101087.19
2022-11-15T03:35:08.500Z,101082.75
2022-11-15T03:37:14.541Z,101082.75
2022-11-15T03:39:20.382Z,101082.22
2022-11-15T03:41:40.768Z,101068.56
2022-11-15T03:43:57.748Z,101070.97
2022-11-15T03:46:03.793Z,101063.72
2022-11-15T03:48:16.443Z,101058.78
2022-11-15T03:50:23.352Z,101056.75
2022-11-15T03:52:25.260Z,101064.44
2022-11-15T03:54:27.017Z,101040.16
2022-11-15T03:56:28.975Z,101055.41
2022-11-15T03:58:30.687Z,101057.06
2022-11-15T04:00:33.001Z,101045.94
2022-11-15T04:02:34.837Z,101045.81
2022-11-15T04:04:36.525Z,101041.28
2022-11-15T04:06:38.265Z,101041.28
2022-11-15T04:08:40.075Z,101041.38
2022-11-15T04:10:41.784Z,101044.22
2022-11-15T04:12:45.561Z,101045.41
2022-11-15T04:14:47.591Z,101044.75
2022-11-15T04:16:49.281Z,101049.31
2022-11-15T04:18:50.993Z,101048.56
2022-11-15T04:20:52.858Z,101034.59
2022-11-15T04:22:56.352Z,101034.97
2022-11-15T04:24:58.034Z,101040.53
2022-11-15T04:27:00.288Z,101036.88
2022-11-15T04:29:01.993Z,101037.50
2022-11-15T04:31:03.695Z,101039.00
2022-11-15T04:33:05.456Z,101031.72
2022-11-15T04:35:07.483Z,101035.38
2022-11-15T04:37:09.175Z,101033.19
2022-11-15T04:39:10.986Z,101027.50
2022-11-15T04:41:12.730Z,101026.34
2022-11-15T04:43:14.417Z,101013.06
2022-11-15T04:45:16.160Z,101028.34
2022-11-15T04:47:17.892Z,101020.53
2022-11-15T04:49:19.597Z,101014.97
2022-11-15T04:51:21.876Z,101018.44
2022-11-15T04:53:23.586Z,101015.59
2022-11-15T04:55:25.293Z,101009.47
2022-11-15T04:57:27.033Z,101010.84
2022-11-15T04:59:28.721Z,101015.06
2022-11-15T05:01:30.567Z,101000.34
2022-11-15T05:03:33.028Z,101002.44
2022-11-15T05:05:34.905Z,101006.63
2022-11-15T05:07:36.645Z,101007.09
2022-11-15T05:09:38.702Z,101001.28
2022-11-15T05:11:40.880Z,101002.56
2022-11-15T05:13:42.631Z,100994.28
2022-11-15T05:15:44.451Z,100991.44
2022-11-15T05:17:46.227Z,100992.91
2022-11-15T05:19:47.957Z,100991.66
2022-11-15T05:21:49.770Z,100993.56
2022-11-15T05:23:51.467Z,100993.19
2022-11-15T05:25:53.174Z,100987.59
2022-11-15T05:27:55.253Z,100984.75
2022-11-15T05:29:56.967Z,100985.25
2022-11-15T05:31:58.844Z,100978.34
2022-11-15T05:34:01.994Z,100984.84
2022-11-15T05:36:14.827Z,100974.44
2022-11-15T05:38:16.557Z,100982.97
2022-11-15T05:40:18.673Z,100977.59
2022-11-15T05:42:20.500Z,100975.16
2022-11-15T05:44:24.260Z,100969.06
2022-11-15T05:46:26.211Z,100968.47
2022-11-15T05:48:27.932Z,100974.56
2022-11-15T05:50:29.689Z,100975.91
2022-11-15T05:52:35.984Z,100974.25
2022-11-15T05:54:38.450Z,100972.34
2022-11-15T05:56:40.502Z,100972.25
2022-11-15T05:58:43.513Z,100973.34
2022-11-15T06:00:45.437Z,100970.38
2022-11-15T06:02:47.155Z,100965.53
2022-11-15T06:04:49.281Z,100972.50
2022-11-15T06:06:51.079Z,100966.59
2022-11-15T06:08:52.783Z,100972.25
2022-11-15T06:10:54.619Z,100969.41
2022-11-15T06:13:08.856Z,100976.47
2022-11-15T06:15:10.775Z,100963.34
2022-11-15T06:17:12.664Z,100976.38
2022-11-15T06:19:14.343Z,100974.56
2022-11-15T06:21:16.047Z,100986.59
2022-11-15T06:23:18.089Z,100984.06
2022-11-15T06:25:19.786Z,100982.38
2022-11-15T06:27:21.498Z,100987.53
2022-11-15T06:29:23.768Z,100991.00
2022-11-15T06:31:25.464Z,100985.75
2022-11-15T06:33:27.181Z,100985.88
2022-11-15T06:35:29.993Z,100991.91
2022-11-15T06:37:31.724Z,100994.78
2022-11-15T06:39:33.442Z,100989.28
2022-11-15T06:41:36.071Z,100986.53
2022-11-15T06:43:38.492Z,100995.16
2022-11-15T06:45:40.178Z,100988.63
2022-11-15T06:47:48.360Z,100983.25
2022-11-15T06:49:50.073Z,101000.06
2022-11-15T06:51:51.759Z,100995.41
2022-11-15T06:53:53.667Z,100998.78
2022-11-15T06:56:00.262Z,100998.28
2022-11-15T06:58:01.944Z,101011.31
2022-11-15T07:00:07.354Z,101010.38
2022-11-15T07:02:14.215Z,101005.03
2022-11-15T07:04:15.937Z,101000.38
2022-11-15T07:06:17.797Z,101002.56
2022-11-15T07:08:19.475Z,101004.44
2022-11-15T07:10:22.208Z,100996.69
2022-11-15T07:12:24.339Z,101001.25
2022-11-15T07:14:26.020Z,101004.44
2022-11-15T07:16:27.766Z,101000.72
2022-11-15T07:18:29.601Z,101002.94
2022-11-15T07:20:31.294Z,100996.09
2022-11-15T07:22:33.085Z,100994.97
2022-11-15T07:24:34.958Z,100999.59
2022-11-15T07:26:36.708Z,100996.75
2022-11-15T07:28:38.440Z,100997.66
2022-11-15T07:30:45.065Z,101005.16
2022-11-15T07:32:47.129Z,101002.78
2022-11-15T07:34:48.850Z,100996.53
2022-11-15T07:36:50.864Z,100997.03
2022-11-15T07:38:52.568Z,100996.97
2022-11-15T07:40:58.946Z,100973.38
2022-11-15T07:43:07.505Z,100985.16
2022-11-15T07:45:09.606Z,100981.06
2022-11-15T07:47:11.304Z,100978.84
2022-11-15T07:49:13.310Z,100979.63
2022-11-15T07:51:16.563Z,100971.06
2022-11-15T07:53:18.287Z,100977.00
2022-11-15T07:55:20.165Z,100976.66
2022-11-15T07:57:21.878Z,100980.47
2022-11-15T07:59:23.585Z,100982.94
2022-11-15T08:01:25.697Z,100985.38
2022-11-15T08:03:27.567Z,100982.28
2022-11-15T08:05:29.263Z,100976.88
2022-11-15T08:07:32.237Z,100974.88
2022-11-15T08:09:33.980Z,100973.19
2022-11-15T08:11:35.664Z,100969.25
2022-11-15T08:13:37.796Z,100964.34
2022-11-15T08:15:39.840Z,100966.88
2022-11-15T08:17:41.553Z,100966.03
2022-11-15T08:19:43.520Z,100954.44
2022-11-15T08:21:45.244Z,100959.53
2022-11-15T08:23:47.010Z,100964.25
2022-11-15T08:25:48.965Z,100947.38
2022-11-15T08:28:03.391Z,100951.84
2022-11-15T08:30:05.562Z,100952.44
2022-11-15T08:32:07.445Z,100958.81
2022-11-15T08:34:09.142Z,100958.13
2022-11-15T08:36:15.883Z,100954.00
2022-11-15T08:38:17.722Z,100948.84
2022-11-15T08:40:19.533Z,100949.13
2022-11-15T08:42:21.268Z,100951.75
2022-11-15T08:44:23.903Z,100946.59
2022-11-15T08:46:26.009Z,100931.94
2022-11-15T08:48:27.712Z,100943.69
2022-11-15T08:50:29.724Z,100944.84
2022-11-15T08:52:31.478Z,100948.28
2022-11-15T08:54:33.175Z,100948.50
2022-11-15T08:56:35.097Z,100944.31
2022-11-15T08:58:37.204Z,100939.44
2022-11-15T09:00:38.988Z,100946.81
2022-11-15T09:02:41.393Z,100945.06
2022-11-15T09:04:44.228Z,100938.00
2022-11-15T09:06:45.943Z,100938.47
2022-11-15T09:08:48.747Z,100936.09
2022-11-15T09:10:50.677Z,100939.84
2022-11-15T09:12:52.483Z,100939.56
2022-11-15T09:14:54.716Z,100941.50
2022-11-15T09:16:56.446Z,100940.28
2022-11-15T09:18:58.164Z,100940.38
2022-11-15T09:21:01.058Z,100935.44
2022-11-15T09:23:03.720Z,100940.09
2022-11-15T09:25:09.920Z,100931.53
2022-11-15T09:27:13.271Z,100927.66
2022-11-15T09:29:15.059Z,100927.19
2022-11-15T09:31:21.166Z,100900.91
2022-11-15T09:33:24.222Z,100920.59
2022-11-15T09:35:25.953Z,100919.03
2022-11-15T09:37:27.875Z,100919.88
2022-11-15T09:39:30.609Z,100927.16
2022-11-15T09:41:59.830Z,100916.53
2022-11-15T09:44:40.149Z,100917.00
2022-11-15T09:47:07.755Z,100917.47
2022-11-15T09:49:12.904Z,100908.25
2022-11-15T09:51:27.339Z,100900.19
2022-11-15T09:54:37.425Z,100916.13
2022-11-15T09:56:23.228Z,100911.94
2022-11-15T09:58:38.011Z,100914.06
2022-11-15T10:00:46.896Z,100904.53
2022-11-15T10:03:18.749Z,100898.41
2022-11-15T10:05:24.902Z,100881.19
2022-11-15T10:07:48.570Z,100906.69
2022-11-15T10:10:00.166Z,100898.91
2022-11-15T10:12:02.016Z,100895.03
2022-11-15T10:14:12.564Z,100890.94
2022-11-15T10:16:20.279Z,100891.59
2022-11-15T10:18:36.295Z,100899.75
2022-11-15T10:21:03.750Z,100879.75
2022-11-15T10:23:14.141Z,100884.22
2022-11-15T10:25:24.512Z,100881.72
2022-11-15T10:27:26.509Z,100889.13
2022-11-15T10:29:28.236Z,100887.38
2022-11-15T10:31:30.548Z,100885.47
2022-11-15T10:33:40.313Z,100880.81
2022-11-15T10:35:42.067Z,100887.53
2022-11-15T10:37:43.969Z,100877.84
2022-11-15T10:40:03.032Z,100883.44
2022-11-15T10:42:26.701Z,100882.84
2022-11-15T10:44:33.048Z,100874.34
2022-11-15T10:46:51.942Z,100874.72
2022-11-15T10:48:53.652Z,100872.16
2022-11-15T10:50:56.917Z,100875.91
2022-11-15T10:53:02.356Z,100863.66
2022-11-15T10:55:13.285Z,100859.94
2022-11-15T10:57:23.336Z,100862.13
2022-11-15T10:59:29.246Z,100864.88
2022-11-15T11:01:31.126Z,100858.66
2022-11-15T11:03:38.244Z,100864.63
2022-11-15T11:05:43.084Z,100864.50
2022-11-15T11:08:01.103Z,100850.84
2022-11-15T11:10:49.747Z,100860.19
2022-11-15T11:12:44.087Z,100852.06
2022-11-15T11:14:45.803Z,100855.75
2022-11-15T11:16:56.674Z,100848.72
2022-11-15T11:19:19.756Z,100848.34
2022-11-15T11:21:56.661Z,100848.44
2022-11-15T11:24:12.973Z,100846.19
2022-11-15T11:26:36.656Z,100845.59
2022-11-15T11:28:54.529Z,100835.25
2022-11-15T11:31:14.892Z,100834.66
2022-11-15T11:33:32.492Z,100827.59
2022-11-15T11:36:09.660Z,100818.50
2022-11-15T11:38:50.971Z,100813.69
2022-11-15T11:41:07.940Z,100812.75
2022-11-15T11:43:33.805Z,100812.22
2022-11-15T11:45:35.617Z,100813.88
2022-11-15T11:47:49.112Z,100812.44
2022-11-15T11:49:55.121Z,100801.44
2022-11-15T11:52:29.673Z,100804.06
2022-11-15T11:54:39.361Z,100797.31
2022-11-15T11:56:44.928Z,100797.31
2022-11-15T11:58:48.463Z,100793.81
2022-11-15T12:00:57.182Z,100782.88
2022-11-15T12:03:09.313Z,100784.22
2022-11-15T12:05:19.676Z,100782.97
2022-11-15T12:07:34.986Z,100782.06
2022-11-15T12:09:40.218Z,100783.22
2022-11-15T12:11:51.025Z,100777.69
2022-11-15T12:14:00.231Z,100780.53
2022-11-15T12:16:15.972Z,100777.94
2022-11-15T12:18:18.503Z,100778.88
2022-11-15T12:20:28.130Z,100770.50
2022-11-15T12:22:40.049Z,100771.94
2022-11-15T12:24:51.571Z,100771.66
2022-11-15T12:27:07.264Z,100780.78
2022-11-15T12:29:32.684Z,100772.84
2022-11-15T12:31:42.923Z,100775.91
2022-11-15T12:33:46.786Z,100776.56
2022-11-15T12:36:00.307Z,100779.31
2022-11-15T12:38:02.519Z,100777.47
2022-11-15T12:40:23.671Z,100770.25
2022-11-15T12:42:31.004Z,100754.03
2022-11-15T12:44:32.870Z,100758.66
2022-11-15T12:46:54.548Z,100759.19
2022-11-15T12:48:59.500Z,100744.22
2022-11-15T12:51:01.323Z,100753.41
2022-11-15T12:53:28.041Z,100761.13
2022-11-15T12:55:32.838Z,100755.44
2022-11-15T12:57:39.322Z,100749.25
2022-11-15T12:59:59.382Z,100751.38
2022-11-15T13:02:01.759Z,100750.06
2022-11-15T13:04:21.671Z,100748.75
2022-11-15T13:06:46.009Z,100737.72
2022-11-15T13:08:48.721Z,100734.53
2022-11-15T13:10:50.485Z,100732.59
2022-11-15T13:13:04.634Z,100730.59
2022-11-15T13:15:15.547Z,100739.91
2022-11-15T13:17:20.270Z,100740.28
2022-11-15T13:19:24.425Z,100743.38
2022-11-15T13:21:26.275Z,100742.81
2022-11-15T13:23:28.096Z,100734.66
2022-11-15T13:25:42.290Z,100730.81
2022-11-15T13:27:44.105Z,100735.84
2022-11-15T13:29:45.927Z,100738.94
2022-11-15T13:31:48.848Z,100720.25
2022-11-15T13:33:51.260Z,100725.97
2022-11-15T13:35:57.581Z,100738.44
2022-11-15T13:38:05.937Z,100734.94
2022-11-15T13:40:28.100Z,100735.47
2022-11-15T13:42:29.848Z,100734.13
2022-11-15T13:44:33.767Z,100742.63
2022-11-15T13:46:35.918Z,100733.78
2022-11-15T13:48:37.716Z,100737.50
2022-11-15T13:50:40.527Z,100737.13
2022-11-15T13:52:46.212Z,100738.66
2022-11-15T13:55:00.586Z,100740.34
2022-11-15T13:57:06.367Z,100735.06
2022-11-15T13:59:20.362Z,100740.00
2022-11-15T14:01:22.954Z,100729.25
2022-11-15T14:03:40.341Z,100729.84
2022-11-15T14:05:42.381Z,100724.47
2022-11-15T14:07:59.027Z,100710.22
2022-11-15T14:10:18.836Z,100727.69
2022-11-15T14:12:35.633Z,100714.38
2022-11-15T14:14:46.485Z,100716.06
2022-11-15T14:16:54.403Z,100708.44
2022-11-15T14:18:56.142Z,100708.72
2022-11-15T14:21:09.632Z,100713.19
2022-11-15T14:23:28.657Z,100695.72
2022-11-15T14:25:36.846Z,100701.88
2022-11-15T14:27:38.668Z,100701.25
2022-11-15T14:29:41.090Z,100699.47
2022-11-15T14:31:44.019Z,100700.75
2022-11-15T14:33:45.861Z,100698.56
2022-11-15T14:35:47.970Z,100702.47
2022-11-15T14:37:50.223Z,100708.94
2022-11-15T14:39:52.637Z,100707.44
2022-11-15T14:41:54.575Z,100705.00
2022-11-15T14:43:56.261Z,100705.34
2022-11-15T14:45:58.024Z,100702.59
2022-11-15T14:47:59.986Z,100705.00
2022-11-15T14:50:02.098Z,100704.34
2022-11-15T14:52:17.476Z,100689.25
2022-11-15T14:54:19.427Z,100705.19
2022-11-15T14:56:21.164Z,100700.97
2022-11-15T14:58:22.840Z,100706.97
2022-11-15T15:00:24.981Z,100701.44
2022-11-15T15:02:28.527Z,100709.31
2022-11-15T15:04:30.227Z,100708.59
2022-11-15T15:06:32.495Z,100705.09
2022-11-15T15:08:34.574Z,100708.47
2022-11-15T15:10:42.774Z,100702.91
2022-11-15T15:12:45.210Z,100703.28
2022-11-15T15:14:48.621Z,100704.59
2022-11-15T15:16:59.607Z,100699.81
2022-11-15T15:19:01.493Z,100694.53
2022-11-15T15:21:03.445Z,100676.63
2022-11-15T15:23:05.122Z,100692.09
2022-11-15T15:25:30.502Z,100690.16
2022-11-15T15:27:32.224Z,100686.31
2022-11-15T15:29:33.937Z,100691.47
2022-11-15T15:31:35.860Z,100690.88
2022-11-15T15:33:38.848Z,100684.25
2022-11-15T15:35:40.615Z,100687.78
2022-11-15T15:37:44.418Z,100692.31
2022-11-15T15:39:46.142Z,100683.56
2022-11-15T15:41:47.813Z,100687.19
2022-11-15T15:43:49.576Z,100684.22
2022-11-15T15:45:51.335Z,100679.78
2022-11-15T15:47:53.158Z,100675.06
2022-11-15T15:49:55.051Z,100671.44
2022-11-15T15:51:56.756Z,100679.44
2022-11-15T15:53:58.443Z,100676.41
2022-11-15T15:56:00.427Z,100679.25
2022-11-15T15:58:02.136Z,100672.59
2022-11-15T16:00:06.001Z,100672.09
2022-11-15T16:02:12.715Z,100678.44
2022-11-15T16:04:14.613Z,100680.00
2022-11-15T16:06:39.858Z,100673.75
2022-11-15T16:09:00.462Z,100680.94
2022-11-15T16:11:03.429Z,100676.56
2022-11-15T16:13:05.136Z,100669.59
2022-11-15T16:15:07.468Z,100666.72
2022-11-15T16:17:22.417Z,100668.41
2022-11-15T16:19:24.229Z,100661.00
2022-11-15T16:21:26.029Z,100654.38
2022-11-15T16:23:27.721Z,100655.53
2022-11-15T16:25:29.581Z,100661.34
2022-11-15T16:27:31.495Z,100656.09
2022-11-15T16:29:33.167Z,100659.66
2022-11-15T16:31:34.862Z,100660.03
2022-11-15T16:33:37.113Z,100652.81
2022-11-15T16:35:39.072Z,100647.19
2022-11-15T16:37:41.065Z,100647.94
2022-11-15T16:39:42.869Z,100650.59
2022-11-15T16:41:44.553Z,100650.75
2022-11-15T16:43:47.130Z,100645.31
2022-11-15T16:45:50.613Z,100656.34
2022-11-15T16:47:53.557Z,100637.19
2022-11-15T16:49:55.664Z,100653.50
2022-11-15T16:51:57.619Z,100647.63
2022-11-15T16:53:59.305Z,100650.38
2022-11-15T16:56:00.979Z,100662.72
2022-11-15T16:58:02.944Z,100650.91
2022-11-15T17:00:05.066Z,100654.38
2022-11-15T17:02:12.506Z,100658.22
2022-11-15T17:04:14.356Z,100666.09
2022-11-15T17:06:16.900Z,100660.00
2022-11-15T17:08:18.657Z,100653.91
2022-11-15T17:10:24.600Z,100650.06
2022-11-15T17:12:27.760Z,100649.59
2022-11-15T17:14:31.685Z,100643.31
2022-11-15T17:16:34.456Z,100640.34
2022-11-15T17:18:37.371Z,100639.72
2022-11-15T17:20:42.584Z,100639.22
2022-11-15T17:22:45.036Z,100649.75
2022-11-15T17:24:47.582Z,100647.25
2022-11-15T17:27:00.883Z,100641.75
2022-11-15T17:29:07.233Z,100647.72
2022-11-15T17:31:11.762Z,100657.31
2022-11-15T17:33:14.121Z,100654.56
2022-11-15T17:35:18.791Z,100640.81
2022-11-15T17:37:20.654Z,100643.00
2022-11-15T17:39:23.043Z,100652.31
2022-11-15T17:41:26.107Z,100648.38
2022-11-15T17:43:28.424Z,100656.06
2022-11-15T17:45:33.885Z,100654.66
2022-11-15T17:47:46.649Z,100656.47
2022-11-15T17:49:51.463Z,100648.94
2022-11-15T17:51:56.262Z,100650.00
2022-11-15T17:54:01.691Z,100650.00
2022-11-15T17:56:12.163Z,100647.63
2022-11-15T17:58:14.532Z,100648.69
2022-11-15T18:00:19.089Z,100646.66
2022-11-15T18:02:21.936Z,100641.38
2022-11-15T18:04:29.002Z,100637.06
2022-11-15T18:06:34.478Z,100641.69
2022-11-15T18:08:40.830Z,100641.22
2022-11-15T18:10:45.737Z,100638.25
2022-11-15T18:12:52.052Z,100639.38
2022-11-15T18:14:55.266Z,100636.63
2022-11-15T18:17:00.271Z,100631.94
2022-11-15T18:19:03.609Z,100637.47
2022-11-15T18:21:11.365Z,100649.41
2022-11-15T18:23:13.877Z,100654.22
2022-11-15T18:25:16.152Z,100647.16
2022-11-15T18:27:17.901Z,100647.50
2022-11-15T18:29:19.922Z,100643.72
2022-11-15T18:31:27.550Z,100639.06
2022-11-15T18:33:33.394Z,100640.59
2022-11-15T18:35:35.348Z,100642.47
2022-11-15T18:37:37.208Z,100642.69
2022-11-15T18:39:38.913Z,100654.00
2022-11-15T18:41:40.806Z,100649.94
2022-11-15T18:43:42.664Z,100642.50
2022-11-15T18:45:44.364Z,100641.28
2022-11-15T18:47:46.139Z,100649.41
2022-11-15T18:49:47.922Z,100641.16
2022-11-15T18:51:49.740Z,100641.44
2022-11-15T18:53:59.577Z,100642.00
2022-11-15T18:56:06.717Z,100643.34
2022-11-15T18:58:08.414Z,100634.72
2022-11-15T19:00:10.895Z,100636.97
2022-11-15T19:02:12.797Z,100634.00
2022-11-15T19:04:16.969Z,100632.53
2022-11-15T19:06:26.645Z,100622.28
2022-11-15T19:08:31.672Z,100614.47
2022-11-15T19:10:36.871Z,100608.25
2022-11-15T19:12:38.547Z,100620.25
2022-11-15T19:14:41.138Z,100617.00
2022-11-15T19:16:49.080Z,100617.34
2022-11-15T19:18:59.120Z,100614.59
2022-11-15T19:21:14.630Z,100618.56
2022-11-15T19:23:17.508Z,100618.91
2022-11-15T19:25:19.255Z,100615.22
2022-11-15T19:27:21.336Z,100618.66
2022-11-15T19:29:23.201Z,100617.94
2022-11-15T19:31:26.668Z,100624.16
2022-11-15T19:33:28.415Z,100624.78
2022-11-15T19:35:30.114Z,100631.00
2022-11-15T19:37:31.816Z,100625.72
2022-11-15T19:39:38.276Z,100629.44
2022-11-15T19:41:43.519Z,100634.38
2022-11-15T19:43:45.860Z,100627.91
2022-11-15T19:45:54.984Z,100626.34
2022-11-15T19:47:59.746Z,100624.06
2022-11-15T19:50:01.441Z,100623.44
2022-11-15T19:52:03.416Z,100617.63
2022-11-15T19:54:05.156Z,100617.34
2022-11-15T19:56:09.001Z,100618.06
2022-11-15T19:58:10.770Z,100613.97
2022-11-15T20:00:12.637Z,100614.47
2022-11-15T20:02:14.364Z,100617.81
2022-11-15T20:04:16.243Z,100614.84
2022-11-15T20:06:19.509Z,100600.13
2022-11-15T20:08:21.183Z,100619.63
2022-11-15T20:10:23.990Z,100615.66
2022-11-15T20:12:25.658Z,100615.16
2022-11-15T20:14:27.346Z,100624.28
2022-11-15T20:16:30.072Z,100615.81
2022-11-15T20:18:32.335Z,100616.38
2022-11-15T20:20:34.256Z,100611.97
2022-11-15T20:22:36.086Z,100606.72
2022-11-15T20:24:37.810Z,100607.06
2022-11-15T20:26:39.879Z,100600.22
2022-11-15T20:28:42.087Z,100602.16
2022-11-15T20:30:45.120Z,100599.88
2022-11-15T20:32:46.902Z,100601.91
2022-11-15T20:34:53.825Z,100584.69
2022-11-15T20:36:55.829Z,100597.00
2022-11-15T20:39:00.744Z,100602.53
2022-11-15T20:41:02.743Z,100608.97
2022-11-15T20:43:05.069Z,100602.97
2022-11-15T20:45:07.546Z,100611.72
2022-11-15T20:47:09.698Z,100608.25
2022-11-15T20:49:11.450Z,100608.50
2022-11-15T20:51:16.311Z,100608.75
2022-11-15T20:53:19.819Z,100611.00
2022-11-15T20:55:21.894Z,100614.94
2022-11-15T20:57:23.592Z,100591.03
2022-11-15T20:59:25.543Z,100610.16
2022-11-15T21:01:27.494Z,100613.13
2022-11-15T21:03:29.301Z,100609.09
2022-11-15T21:05:31.518Z,100607.63
2022-11-15T21:07:33.312Z,100607.75
2022-11-15T21:09:35.071Z,100597.81
2022-11-15T21:11:37.498Z,100603.44
2022-11-15T21:13:39.498Z,100598.19
2022-11-15T21:15:41.258Z,100602.13
2022-11-15T21:17:43.118Z,100604.63
2022-11-15T21:19:45.282Z,100599.50
2022-11-15T21:21:46.972Z,100595.56
2022-11-15T21:23:48.816Z,100594.97
2022-11-15T21:25:51.992Z,100593.19
2022-11-15T21:27:53.731Z,100581.22
2022-11-15T21:29:55.481Z,100585.75
2022-11-15T21:31:57.193Z,100591.63
2022-11-15T21:34:01.838Z,100587.31
2022-11-15T21:36:04.817Z,100568.78
2022-11-15T21:38:06.534Z,100586.00
2022-11-15T21:40:08.870Z,100580.84
2022-11-15T21:42:11.042Z,100578.59
2022-11-15T21:44:12.732Z,100577.13
2022-11-15T21:46:14.472Z,100573.78
2022-11-15T21:48:16.532Z,100567.22
2022-11-15T21:50:18.344Z,100570.91
2022-11-15T21:52:20.067Z,100574.50
2022-11-15T21:54:21.871Z,100571.16
2022-11-15T21:56:24.977Z,100574.50
2022-11-15T21:58:27.718Z,100559.28
2022-11-15T22:00:29.696Z,100573.19
2022-11-15T22:02:31.484Z,100563.63
2022-11-15T22:06:53.251Z,100546.03
2022-11-15T22:08:55.072Z,100543.56
2022-11-15T22:10:56.801Z,100543.91
2022-11-15T22:12:58.794Z,100539.13
2022-11-15T22:15:00.703Z,100534.00
2022-11-15T22:17:02.505Z,100542.09
2022-11-15T22:19:04.927Z,100545.34
2022-11-15T22:21:12.172Z,100535.91
2022-11-15T22:23:13.912Z,100539.50
2022-11-15T22:25:16.232Z,100533.03
2022-11-15T22:27:17.990Z,100541.88
2022-11-15T22:29:19.750Z,100537.06
2022-11-15T22:31:22.109Z,100538.75
2022-11-15T22:33:28.964Z,100534.44
2022-11-15T22:35:30.693Z,100540.69
2022-11-15T22:37:33.217Z,100523.47
2022-11-15T22:39:34.948Z,100530.03
2022-11-15T22:41:36.716Z,100531.94
2022-11-15T22:43:38.728Z,100531.00
2022-11-15T22:46:06.889Z,100526.44
2022-11-15T22:48:08.615Z,100538.88
2022-11-15T22:50:10.659Z,100528.03
2022-11-15T22:52:12.709Z,100522.75
2022-11-15T22:54:14.452Z,100527.66
2022-11-15T22:56:20.179Z,100509.56
2022-11-15T22:58:23.941Z,100511.16
2022-11-15T23:00:25.748Z,100520.69
2022-11-15T23:02:27.638Z,100514.00
2022-11-15T23:04:29.357Z,100517.25
2022-11-15T23:06:31.141Z,100507.78
2022-11-15T23:08:33.575Z,100514.00
2022-11-15T23:10:35.346Z,100510.66
2022-11-15T23:12:37.100Z,100493.91
2022-11-15T23:14:38.989Z,100519.72
2022-11-15T23:16:40.717Z,100519.59
2022-11-15T23:18:42.478Z,100525.47
2022-11-15T23:20:44.834Z,100519.47
2022-11-15T23:22:46.644Z,100516.59
2022-11-15T23:24:48.405Z,100524.03
2022-11-15T23:26:53.442Z,100516.13
2022-11-15T23:28:55.223Z,100525.59
2022-11-15T23:31:02.884Z,100520.91
2022-11-15T23:33:04.991Z,100516.72
2022-11-15T23:35:07.080Z,100513.06
2022-11-15T23:37:10.630Z,100504.22
2022-11-15T23:39:12.844Z,100499.34
2022-11-15T23:41:14.824Z,100502.31
2022-11-15T23:43:16.547Z,100494.06
2022-11-15T23:45:18.527Z,100492.38
2022-11-15T23:47:20.612Z,100497.97
2022-11-15T23:49:22.489Z,100497.34
2022-11-15T23:51:24.765Z,100490.41
2022-11-15T23:53:26.875Z,100486.28